Terminal Aerodrome Forecast
Issued by NWS

Home | Current Version | Previous Version | Text Only | Print | Product List | Glossary On
Versions: 1 2 3 4 5 6 7 8 9 10 11 12 13 14 15 16 17 18 19 20 21 22 23 24 25 26 27 28 29 30 31 32 33 34 35 36 37 38 39 40 41
000
FTUS45 KPSR 271853 AAA
TAFIWA
TAF AMD
KIWA 271853Z 2719/2818 13005KT P6SM FEW080 SCT250
     FM272000 26008KT P6SM SCT080 BKN200
     FM272100 29008KT P6SM VCTS BKN080CB BKN100
      TEMPO 2722/2724 VRB20G30KT BKN070CB
     FM280400 36009KT P6SM SCT080 BKN120 BKN200
     FM280700 12005KT P6SM SCT080 BKN200=

USA.gov is the U.S. government's official web portal to all federal, state and local government web resources and services.